sensor_id;sensor_type;location;lat;lon;timestamp;pressure;altitude;pressure_sealevel;temperature;humidity
72465;BME280;60471;52.150;4.508;2023-05-14T00:00:00;101851.19;;;14.56;70.03
72465;BME280;60471;52.150;4.508;2023-05-14T00:02:26;101847.69;;;14.55;70.86
72465;BME280;60471;52.150;4.508;2023-05-14T00:04:52;101853.84;;;14.56;70.45
72465;BME280;60471;52.150;4.508;2023-05-14T00:07:18;101850.00;;;14.42;71.00
72465;BME280;60471;52.150;4.508;2023-05-14T00:09:45;101848.38;;;14.40;70.73
72465;BME280;60471;52.150;4.508;2023-05-14T00:12:11;101837.97;;;14.35;70.56
72465;BME280;60471;52.150;4.508;2023-05-14T00:14:37;101833.59;;;14.34;70.55
72465;BME280;60471;52.150;4.508;2023-05-14T00:17:03;101827.78;;;14.26;71.08
72465;BME280;60471;52.150;4.508;2023-05-14T00:19:31;101825.91;;;14.28;70.92
72465;BME280;60471;52.150;4.508;2023-05-14T00:21:57;101832.31;;;14.24;70.86
72465;BME280;60471;52.150;4.508;2023-05-14T00:24:24;101830.63;;;14.21;71.52
72465;BME280;60471;52.150;4.508;2023-05-14T00:26:50;101831.56;;;14.20;71.58
72465;BME280;60471;52.150;4.508;2023-05-14T00:29:16;101831.53;;;14.22;71.24
72465;BME280;60471;52.150;4.508;2023-05-14T00:31:42;101824.97;;;14.29;71.18
72465;BME280;60471;52.150;4.508;2023-05-14T00:34:09;101826.84;;;14.27;71.35
72465;BME280;60471;52.150;4.508;2023-05-14T00:36:35;101821.69;;;14.24;71.70
72465;BME280;60471;52.150;4.508;2023-05-14T00:39:01;101821.78;;;14.23;71.65
72465;BME280;60471;52.150;4.508;2023-05-14T00:41:28;101822.47;;;14.26;71.68
72465;BME280;60471;52.150;4.508;2023-05-14T00:43:54;101816.16;;;14.29;71.12
72465;BME280;60471;52.150;4.508;2023-05-14T00:46:21;101815.59;;;14.22;71.17
72465;BME280;60471;52.150;4.508;2023-05-14T00:48:47;101815.44;;;14.25;71.07
72465;BME280;60471;52.150;4.508;2023-05-14T00:51:15;101808.25;;;14.08;71.82
72465;BME280;60471;52.150;4.508;2023-05-14T00:53:42;101807.56;;;14.05;71.83
72465;BME280;60471;52.150;4.508;2023-05-14T00:56:09;101799.75;;;14.02;71.62
72465;BME280;60471;52.150;4.508;2023-05-14T00:58:35;101805.84;;;14.04;71.58
72465;BME280;60471;52.150;4.508;2023-05-14T01:01:02;101805.47;;;13.92;71.40
72465;BME280;60471;52.150;4.508;2023-05-14T01:03:29;101806.50;;;13.90;72.14
72465;BME280;60471;52.150;4.508;2023-05-14T01:06:16;101806.69;;;13.85;72.09
72465;BME280;60471;52.150;4.508;2023-05-14T01:09:12;101804.75;;;13.89;71.94
72465;BME280;60471;52.150;4.508;2023-05-14T01:14:35;101803.53;;;13.96;71.79
72465;BME280;60471;52.150;4.508;2023-05-14T01:17:10;101803.53;;;13.96;72.04
72465;BME280;60471;52.150;4.508;2023-05-14T01:19:42;101806.53;;;13.88;72.59
72465;BME280;60471;52.150;4.508;2023-05-14T01:22:10;101802.16;;;13.69;72.84
72465;BME280;60471;52.150;4.508;2023-05-14T01:24:36;101795.84;;;13.71;73.27
72465;BME280;60471;52.150;4.508;2023-05-14T01:27:10;101794.50;;;13.81;72.76
72465;BME280;60471;52.150;4.508;2023-05-14T01:29:42;101798.22;;;13.77;72.79
72465;BME280;60471;52.150;4.508;2023-05-14T01:32:16;101800.94;;;13.76;73.13
72465;BME280;60471;52.150;4.508;2023-05-14T01:34:46;101799.38;;;13.72;72.95
72465;BME280;60471;52.150;4.508;2023-05-14T01:37:15;101795.78;;;13.73;73.32
72465;BME280;60471;52.150;4.508;2023-05-14T01:39:43;101792.28;;;13.72;73.30
72465;BME280;60471;52.150;4.508;2023-05-14T01:42:10;101776.06;;;13.78;73.73
72465;BME280;60471;52.150;4.508;2023-05-14T01:44:38;101786.09;;;13.72;73.80
72465;BME280;60471;52.150;4.508;2023-05-14T01:47:04;101772.91;;;13.70;73.35
72465;BME280;60471;52.150;4.508;2023-05-14T01:49:30;101764.88;;;13.72;73.67
72465;BME280;60471;52.150;4.508;2023-05-14T01:51:57;101783.88;;;13.62;74.09
72465;BME280;60471;52.150;4.508;2023-05-14T01:54:23;101780.13;;;13.67;74.02
72465;BME280;60471;52.150;4.508;2023-05-14T01:56:50;101779.78;;;13.74;73.76
72465;BME280;60471;52.150;4.508;2023-05-14T01:59:16;101785.88;;;13.76;73.40
72465;BME280;60471;52.150;4.508;2023-05-14T02:01:42;101784.84;;;13.80;73.84
72465;BME280;60471;52.150;4.508;2023-05-14T02:04:08;101794.69;;;13.77;73.80
72465;BME280;60471;52.150;4.508;2023-05-14T02:06:35;101792.13;;;13.75;73.83
72465;BME280;60471;52.150;4.508;2023-05-14T02:09:01;101791.25;;;13.75;73.56
72465;BME280;60471;52.150;4.508;2023-05-14T02:11:28;101793.22;;;13.71;73.68
72465;BME280;60471;52.150;4.508;2023-05-14T02:13:54;101790.97;;;13.62;73.63
72465;BME280;60471;52.150;4.508;2023-05-14T02:16:20;101788.09;;;13.67;73.59
72465;BME280;60471;52.150;4.508;2023-05-14T02:18:46;101786.06;;;13.53;73.83
72465;BME280;60471;52.150;4.508;2023-05-14T02:21:12;101780.63;;;13.56;74.19
72465;BME280;60471;52.150;4.508;2023-05-14T02:23:39;101784.13;;;13.38;74.60
72465;BME280;60471;52.150;4.508;2023-05-14T02:26:05;101775.56;;;13.31;74.66
72465;BME280;60471;52.150;4.508;2023-05-14T02:28:31;101773.84;;;13.30;74.91
72465;BME280;60471;52.150;4.508;2023-05-14T02:30:58;101767.84;;;13.45;74.64
72465;BME280;60471;52.150;4.508;2023-05-14T02:33:26;101765.19;;;13.45;74.53
72465;BME280;60471;52.150;4.508;2023-05-14T02:35:53;101767.00;;;13.45;74.91
72465;BME280;60471;52.150;4.508;2023-05-14T02:38:19;101757.53;;;13.39;74.79
72465;BME280;60471;52.150;4.508;2023-05-14T02:40:45;101755.75;;;13.40;74.71
72465;BME280;60471;52.150;4.508;2023-05-14T02:43:11;101758.94;;;13.27;75.31
72465;BME280;60471;52.150;4.508;2023-05-14T02:45:38;101745.84;;;13.24;75.57
72465;BME280;60471;52.150;4.508;2023-05-14T02:48:04;101755.63;;;13.22;75.88
72465;BME280;60471;52.150;4.508;2023-05-14T02:50:30;101749.22;;;13.28;75.76
72465;BME280;60471;52.150;4.508;2023-05-14T02:52:57;101759.72;;;13.29;75.73
72465;BME280;60471;52.150;4.508;2023-05-14T02:55:23;101749.84;;;13.33;75.97
72465;BME280;60471;52.150;4.508;2023-05-14T02:57:51;101753.53;;;13.49;75.71
72465;BME280;60471;52.150;4.508;2023-05-14T03:00:18;101752.94;;;13.43;75.60
72465;BME280;60471;52.150;4.508;2023-05-14T03:02:44;101749.78;;;13.34;75.42
72465;BME280;60471;52.150;4.508;2023-05-14T03:05:10;101754.28;;;13.32;75.38
72465;BME280;60471;52.150;4.508;2023-05-14T03:07:36;101751.25;;;13.21;75.96
72465;BME280;60471;52.150;4.508;2023-05-14T03:10:03;101749.28;;;13.26;76.16
72465;BME280;60471;52.150;4.508;2023-05-14T03:12:30;101743.13;;;13.26;76.15
72465;BME280;60471;52.150;4.508;2023-05-14T03:14:56;101741.25;;;13.28;76.33
72465;BME280;60471;52.150;4.508;2023-05-14T03:17:23;101742.31;;;13.24;75.87
72465;BME280;60471;52.150;4.508;2023-05-14T03:19:49;101736.13;;;13.23;76.11
72465;BME280;60471;52.150;4.508;2023-05-14T03:22:15;101741.44;;;13.23;76.16
72465;BME280;60471;52.150;4.508;2023-05-14T03:24:41;101729.03;;;13.24;76.06
72465;BME280;60471;52.150;4.508;2023-05-14T03:27:08;101735.16;;;13.26;76.04
72465;BME280;60471;52.150;4.508;2023-05-14T03:29:34;101733.94;;;13.33;75.77
72465;BME280;60471;52.150;4.508;2023-05-14T03:32:00;101730.66;;;13.28;75.88
72465;BME280;60471;52.150;4.508;2023-05-14T03:34:26;101725.44;;;13.26;75.98
72465;BME280;60471;52.150;4.508;2023-05-14T03:36:53;101732.59;;;13.24;76.01
72465;BME280;60471;52.150;4.508;2023-05-14T03:39:19;101730.84;;;13.23;75.97
72465;BME280;60471;52.150;4.508;2023-05-14T03:41:46;101736.34;;;13.19;76.19
72465;BME280;60471;52.150;4.508;2023-05-14T03:44:13;101733.88;;;13.14;76.38
72465;BME280;60471;52.150;4.508;2023-05-14T03:46:39;101730.13;;;13.20;76.21
72465;BME280;60471;52.150;4.508;2023-05-14T03:49:06;101739.47;;;13.28;76.69
72465;BME280;60471;52.150;4.508;2023-05-14T03:51:33;101735.94;;;13.28;76.50
72465;BME280;60471;52.150;4.508;2023-05-14T03:53:59;101736.59;;;13.33;76.09
72465;BME280;60471;52.150;4.508;2023-05-14T03:56:25;101746.03;;;13.20;76.50
72465;BME280;60471;52.150;4.508;2023-05-14T03:58:51;101747.50;;;13.27;76.56
72465;BME280;60471;52.150;4.508;2023-05-14T04:01:18;101744.94;;;13.24;76.63
72465;BME280;60471;52.150;4.508;2023-05-14T04:03:44;101742.50;;;13.40;75.70
72465;BME280;60471;52.150;4.508;2023-05-14T04:06:10;101739.63;;;13.44;75.31
72465;BME280;60471;52.150;4.508;2023-05-14T04:08:36;101738.47;;;13.31;75.47
72465;BME280;60471;52.150;4.508;2023-05-14T04:11:03;101741.28;;;13.47;75.95
72465;BME280;60471;52.150;4.508;2023-05-14T04:13:29;101742.41;;;13.41;75.96
72465;BME280;60471;52.150;4.508;2023-05-14T04:15:55;101739.69;;;13.43;75.51
72465;BME280;60471;52.150;4.508;2023-05-14T04:18:22;101737.41;;;13.54;75.67
72465;BME280;60471;52.150;4.508;2023-05-14T04:20:48;101741.50;;;13.61;75.86
72465;BME280;60471;52.150;4.508;2023-05-14T04:23:14;101743.31;;;13.60;75.34
72465;BME280;60471;52.150;4.508;2023-05-14T04:25:41;101740.34;;;13.67;75.12
72465;BME280;60471;52.150;4.508;2023-05-14T04:28:07;101740.88;;;13.75;75.01
72465;BME280;60471;52.150;4.508;2023-05-14T04:30:33;101744.31;;;13.77;74.56
72465;BME280;60471;52.150;4.508;2023-05-14T04:32:59;101738.78;;;13.81;74.23
72465;BME280;60471;52.150;4.508;2023-05-14T04:35:26;101741.56;;;13.78;74.84
72465;BME280;60471;52.150;4.508;2023-05-14T04:37:52;101747.97;;;13.93;74.51
72465;BME280;60471;52.150;4.508;2023-05-14T04:40:18;101745.59;;;14.06;73.86
72465;BME280;60471;52.150;4.508;2023-05-14T04:42:45;101731.63;;;14.02;73.73
72465;BME280;60471;52.150;4.508;2023-05-14T04:45:11;101732.56;;;14.01;73.18
72465;BME280;60471;52.150;4.508;2023-05-14T04:47:38;101730.69;;;14.03;73.30
72465;BME280;60471;52.150;4.508;2023-05-14T04:50:05;101735.31;;;14.17;73.14
72465;BME280;60471;52.150;4.508;2023-05-14T04:52:31;101731.97;;;14.13;73.39
72465;BME280;60471;52.150;4.508;2023-05-14T04:54:58;101748.59;;;14.17;73.51
72465;BME280;60471;52.150;4.508;2023-05-14T04:57:24;101747.22;;;14.08;72.86
72465;BME280;60471;52.150;4.508;2023-05-14T04:59:50;101748.75;;;13.95;73.25
72465;BME280;60471;52.150;4.508;2023-05-14T05:02:16;101739.84;;;14.15;73.55
72465;BME280;60471;52.150;4.508;2023-05-14T05:04:43;101739.94;;;14.31;72.27
72465;BME280;60471;52.150;4.508;2023-05-14T05:07:09;101738.47;;;14.06;72.59
72465;BME280;60471;52.150;4.508;2023-05-14T05:09:35;101741.13;;;14.06;72.85
72465;BME280;60471;52.150;4.508;2023-05-14T05:12:01;101741.06;;;14.08;73.01
72465;BME280;60471;52.150;4.508;2023-05-14T05:14:27;101746.22;;;14.11;72.74
72465;BME280;60471;52.150;4.508;2023-05-14T05:16:53;101758.00;;;14.41;72.83
72465;BME280;60471;52.150;4.508;2023-05-14T05:19:20;101756.56;;;14.53;72.05
72465;BME280;60471;52.150;4.508;2023-05-14T05:21:46;101769.47;;;14.61;72.17
72465;BME280;60471;52.150;4.508;2023-05-14T05:24:12;101762.94;;;14.68;71.80
72465;BME280;60471;52.150;4.508;2023-05-14T05:26:38;101763.38;;;14.76;71.81
72465;BME280;60471;52.150;4.508;2023-05-14T05:29:06;101768.63;;;14.77;71.59
72465;BME280;60471;52.150;4.508;2023-05-14T05:31:32;101768.16;;;14.87;71.73
72465;BME280;60471;52.150;4.508;2023-05-14T05:33:59;101765.75;;;14.99;71.56
72465;BME280;60471;52.150;4.508;2023-05-14T05:36:26;101770.34;;;14.96;71.19
72465;BME280;60471;52.150;4.508;2023-05-14T05:38:52;101759.63;;;14.97;70.79
72465;BME280;60471;52.150;4.508;2023-05-14T05:41:18;101765.84;;;14.98;71.70
72465;BME280;60471;52.150;4.508;2023-05-14T05:43:44;101764.59;;;14.88;70.99
72465;BME280;60471;52.150;4.508;2023-05-14T05:46:11;101776.44;;;14.81;71.73
72465;BME280;60471;52.150;4.508;2023-05-14T05:48:37;101770.97;;;15.01;71.47
72465;BME280;60471;52.150;4.508;2023-05-14T05:51:03;101773.56;;;15.02;71.00
72465;BME280;60471;52.150;4.508;2023-05-14T05:53:29;101767.91;;;15.08;71.92
72465;BME280;60471;52.150;4.508;2023-05-14T05:55:55;101774.28;;;14.89;71.20
72465;BME280;60471;52.150;4.508;2023-05-14T05:58:22;101768.63;;;14.95;71.69
72465;BME280;60471;52.150;4.508;2023-05-14T06:00:48;101770.50;;;15.10;71.77
72465;BME280;60471;52.150;4.508;2023-05-14T06:03:14;101766.66;;;15.33;71.19
72465;BME280;60471;52.150;4.508;2023-05-14T06:05:41;101767.13;;;15.57;70.25
72465;BME280;60471;52.150;4.508;2023-05-14T06:08:07;101766.06;;;15.44;69.96
72465;BME280;60471;52.150;4.508;2023-05-14T06:10:33;101764.56;;;15.55;69.90
72465;BME280;60471;52.150;4.508;2023-05-14T06:13:01;101766.84;;;15.63;69.44
72465;BME280;60471;52.150;4.508;2023-05-14T06:15:27;101766.59;;;15.83;68.52
72465;BME280;60471;52.150;4.508;2023-05-14T06:17:53;101771.72;;;15.71;69.03
72465;BME280;60471;52.150;4.508;2023-05-14T06:20:19;101775.13;;;15.40;70.28
72465;BME280;60471;52.150;4.508;2023-05-14T06:22:45;101771.63;;;15.72;69.97
72465;BME280;60471;52.150;4.508;2023-05-14T06:25:12;101770.56;;;15.76;69.12
72465;BME280;60471;52.150;4.508;2023-05-14T06:27:38;101781.03;;;15.95;68.97
72465;BME280;60471;52.150;4.508;2023-05-14T06:30:05;101775.56;;;15.98;67.97
72465;BME280;60471;52.150;4.508;2023-05-14T06:32:31;101780.75;;;15.51;68.79
72465;BME280;60471;52.150;4.508;2023-05-14T06:34:58;101786.25;;;15.65;68.67
72465;BME280;60471;52.150;4.508;2023-05-14T06:37:24;101786.16;;;15.67;69.52
72465;BME280;60471;52.150;4.508;2023-05-14T06:39:50;101779.03;;;15.83;69.17
72465;BME280;60471;52.150;4.508;2023-05-14T06:42:16;101780.75;;;15.84;69.18
72465;BME280;60471;52.150;4.508;2023-05-14T06:44:43;101778.53;;;15.92;68.00
72465;BME280;60471;52.150;4.508;2023-05-14T06:47:10;101771.91;;;15.83;67.88
72465;BME280;60471;52.150;4.508;2023-05-14T06:49:38;101766.72;;;15.98;68.13
72465;BME280;60471;52.150;4.508;2023-05-14T06:52:04;101769.25;;;16.15;67.07
72465;BME280;60471;52.150;4.508;2023-05-14T06:54:31;101767.19;;;15.73;67.34
72465;BME280;60471;52.150;4.508;2023-05-14T06:56:57;101774.44;;;15.36;69.50
72465;BME280;60471;52.150;4.508;2023-05-14T06:59:23;101777.41;;;15.47;68.74
72465;BME280;60471;52.150;4.508;2023-05-14T07:01:49;101767.03;;;15.58;68.88
72465;BME280;60471;52.150;4.508;2023-05-14T07:04:16;101769.16;;;15.69;68.46
72465;BME280;60471;52.150;4.508;2023-05-14T07:06:42;101776.19;;;15.70;68.13
72465;BME280;60471;52.150;4.508;2023-05-14T07:09:08;101765.00;;;15.97;67.63
72465;BME280;60471;52.150;4.508;2023-05-14T07:11:35;101761.78;;;16.37;66.82
72465;BME280;60471;52.150;4.508;2023-05-14T07:14:01;101770.31;;;15.97;67.79
72465;BME280;60471;52.150;4.508;2023-05-14T07:16:27;101769.53;;;16.10;68.12
72465;BME280;60471;52.150;4.508;2023-05-14T07:18:54;101759.13;;;16.21;67.88
72465;BME280;60471;52.150;4.508;2023-05-14T07:21:20;101762.91;;;16.33;66.85
72465;BME280;60471;52.150;4.508;2023-05-14T07:23:46;101762.97;;;16.47;66.95
72465;BME280;60471;52.150;4.508;2023-05-14T07:26:12;101761.31;;;16.76;64.60
72465;BME280;60471;52.150;4.508;2023-05-14T07:28:38;101757.84;;;17.04;64.90
72465;BME280;60471;52.150;4.508;2023-05-14T07:31:05;101765.59;;;17.23;64.05
72465;BME280;60471;52.150;4.508;2023-05-14T07:33:37;101756.84;;;17.50;62.93
72465;BME280;60471;52.150;4.508;2023-05-14T07:36:03;101754.16;;;17.35;61.97
72465;BME280;60471;52.150;4.508;2023-05-14T07:38:30;101759.28;;;17.24;63.19
72465;BME280;60471;52.150;4.508;2023-05-14T07:40:57;101762.00;;;17.38;62.96
72465;BME280;60471;52.150;4.508;2023-05-14T07:43:23;101756.94;;;17.48;62.75
72465;BME280;60471;52.150;4.508;2023-05-14T07:45:50;101753.16;;;17.81;61.86
72465;BME280;60471;52.150;4.508;2023-05-14T07:48:16;101758.94;;;17.87;60.88
72465;BME280;60471;52.150;4.508;2023-05-14T07:50:43;101757.50;;;17.67;61.53
72465;BME280;60471;52.150;4.508;2023-05-14T07:53:10;101758.63;;;17.21;63.06
72465;BME280;60471;52.150;4.508;2023-05-14T07:55:36;101762.47;;;16.87;63.92
72465;BME280;60471;52.150;4.508;2023-05-14T07:58:02;101758.53;;;16.78;64.44
72465;BME280;60471;52.150;4.508;2023-05-14T08:00:28;101747.94;;;17.06;63.28
72465;BME280;60471;52.150;4.508;2023-05-14T08:02:54;101755.41;;;17.44;62.07
72465;BME280;60471;52.150;4.508;2023-05-14T08:05:21;101749.97;;;17.17;63.66
72465;BME280;60471;52.150;4.508;2023-05-14T08:07:49;101746.53;;;17.29;62.54
72465;BME280;60471;52.150;4.508;2023-05-14T08:10:15;101742.53;;;17.36;63.25
72465;BME280;60471;52.150;4.508;2023-05-14T08:12:42;101739.31;;;17.60;62.06
72465;BME280;60471;52.150;4.508;2023-05-14T08:15:08;101749.47;;;17.67;61.62
72465;BME280;60471;52.150;4.508;2023-05-14T08:17:35;101737.59;;;17.59;62.27
72465;BME280;60471;52.150;4.508;2023-05-14T08:20:01;101728.50;;;17.90;61.47
72465;BME280;60471;52.150;4.508;2023-05-14T08:22:27;101737.03;;;18.23;61.40
72465;BME280;60471;52.150;4.508;2023-05-14T08:24:54;101734.72;;;18.44;59.49
72465;BME280;60471;52.150;4.508;2023-05-14T08:27:20;101737.25;;;18.33;60.22
72465;BME280;60471;52.150;4.508;2023-05-14T08:29:47;101735.19;;;18.24;60.23
72465;BME280;60471;52.150;4.508;2023-05-14T08:32:13;101739.16;;;18.31;59.85
72465;BME280;60471;52.150;4.508;2023-05-14T08:34:40;101736.78;;;18.53;59.05
72465;BME280;60471;52.150;4.508;2023-05-14T08:37:06;101722.91;;;19.01;58.13
72465;BME280;60471;52.150;4.508;2023-05-14T08:39:32;101732.19;;;19.46;56.11
72465;BME280;60471;52.150;4.508;2023-05-14T08:41:59;101732.16;;;19.72;55.64
72465;BME280;60471;52.150;4.508;2023-05-14T08:44:38;101723.63;;;19.54;54.75
72465;BME280;60471;52.150;4.508;2023-05-14T08:47:13;101714.53;;;19.56;54.89
72465;BME280;60471;52.150;4.508;2023-05-14T08:49:45;101722.47;;;19.94;53.78
72465;BME280;60471;52.150;4.508;2023-05-14T08:52:15;101709.84;;;20.20;53.53
72465;BME280;60471;52.150;4.508;2023-05-14T08:54:44;101712.22;;;20.12;53.10
72465;BME280;60471;52.150;4.508;2023-05-14T08:57:13;101714.09;;;20.23;52.94
72465;BME280;60471;52.150;4.508;2023-05-14T08:59:40;101719.97;;;20.04;53.57
72465;BME280;60471;52.150;4.508;2023-05-14T09:02:08;101710.03;;;19.93;54.45
72465;BME280;60471;52.150;4.508;2023-05-14T09:04:39;101706.50;;;20.17;53.29
72465;BME280;60471;52.150;4.508;2023-05-14T09:07:06;101696.75;;;20.16;53.80
72465;BME280;60471;52.150;4.508;2023-05-14T09:09:32;101701.81;;;20.20;53.82
72465;BME280;60471;52.150;4.508;2023-05-14T09:12:00;101693.88;;;20.43;54.26
72465;BME280;60471;52.150;4.508;2023-05-14T09:14:26;101702.72;;;20.67;53.34
72465;BME280;60471;52.150;4.508;2023-05-14T09:16:52;101691.75;;;21.17;51.63
72465;BME280;60471;52.150;4.508;2023-05-14T09:19:19;101696.97;;;20.96;51.79
72465;BME280;60471;52.150;4.508;2023-05-14T09:21:48;101694.91;;;21.22;51.02
72465;BME280;60471;52.150;4.508;2023-05-14T09:24:22;101688.22;;;21.38;51.73
72465;BME280;60471;52.150;4.508;2023-05-14T09:26:52;101692.97;;;21.35;50.45
72465;BME280;60471;52.150;4.508;2023-05-14T09:29:19;101686.75;;;21.46;49.93
72465;BME280;60471;52.150;4.508;2023-05-14T09:31:49;101689.31;;;21.36;51.48
72465;BME280;60471;52.150;4.508;2023-05-14T09:34:27;101688.69;;;21.44;51.62
72465;BME280;60471;52.150;4.508;2023-05-14T09:36:57;101688.69;;;21.44;50.66
72465;BME280;60471;52.150;4.508;2023-05-14T09:39:29;101691.75;;;21.73;50.24
72465;BME280;60471;52.150;4.508;2023-05-14T09:41:56;101693.97;;;21.99;50.12
72465;BME280;60471;52.150;4.508;2023-05-14T09:44:24;101689.72;;;21.97;50.22
72465;BME280;60471;52.150;4.508;2023-05-14T09:46:52;101692.19;;;21.89;50.14
72465;BME280;60471;52.150;4.508;2023-05-14T09:49:19;101687.19;;;21.84;50.29
72465;BME280;60471;52.150;4.508;2023-05-14T09:51:47;101686.72;;;21.68;50.28
72465;BME280;60471;52.150;4.508;2023-05-14T09:54:14;101681.22;;;21.69;50.24
72465;BME280;60471;52.150;4.508;2023-05-14T09:56:41;101689.41;;;21.68;50.20
72465;BME280;60471;52.150;4.508;2023-05-14T09:59:09;101681.81;;;21.84;49.16
72465;BME280;60471;52.150;4.508;2023-05-14T10:01:36;101686.13;;;21.53;50.09
72465;BME280;60471;52.150;4.508;2023-05-14T10:04:06;101684.34;;;22.08;49.16
72465;BME280;60471;52.150;4.508;2023-05-14T10:06:36;101683.59;;;22.17;48.82
72465;BME280;60471;52.150;4.508;2023-05-14T10:09:04;101684.06;;;22.43;47.08
72465;BME280;60471;52.150;4.508;2023-05-14T10:11:38;101673.00;;;21.93;49.18
72465;BME280;60471;52.150;4.508;2023-05-14T10:14:13;101675.56;;;22.59;48.06
72465;BME280;60471;52.150;4.508;2023-05-14T10:16:52;101669.00;;;22.52;48.13
72465;BME280;60471;52.150;4.508;2023-05-14T10:19:23;101666.72;;;22.47;48.12
72465;BME280;60471;52.150;4.508;2023-05-14T10:22:03;101666.69;;;22.89;47.45
72465;BME280;60471;52.150;4.508;2023-05-14T10:24:32;101655.75;;;23.42;46.24
72465;BME280;60471;52.150;4.508;2023-05-14T10:26:59;101659.06;;;23.15;47.47
72465;BME280;60471;52.150;4.508;2023-05-14T10:29:33;101655.38;;;23.16;46.15
72465;BME280;60471;52.150;4.508;2023-05-14T10:32:04;101652.38;;;23.50;45.81
72465;BME280;60471;52.150;4.508;2023-05-14T10:34:40;101648.06;;;23.68;45.26
72465;BME280;60471;52.150;4.508;2023-05-14T10:37:11;101645.72;;;24.23;44.01
72465;BME280;60471;52.150;4.508;2023-05-14T10:39:46;101644.13;;;24.69;43.10
72465;BME280;60471;52.150;4.508;2023-05-14T10:42:27;101643.03;;;25.36;42.03
72465;BME280;60471;52.150;4.508;2023-05-14T10:45:04;101639.22;;;26.19;39.83
72465;BME280;60471;52.150;4.508;2023-05-14T10:47:35;101636.84;;;26.16;39.57
72465;BME280;60471;52.150;4.508;2023-05-14T10:50:05;101630.50;;;26.08;39.53
72465;BME280;60471;52.150;4.508;2023-05-14T10:52:34;101631.97;;;26.20;39.28
72465;BME280;60471;52.150;4.508;2023-05-14T10:55:05;101632.16;;;26.62;39.23
72465;BME280;60471;52.150;4.508;2023-05-14T10:57:39;101630.34;;;26.27;39.51
72465;BME280;60471;52.150;4.508;2023-05-14T11:00:07;101635.38;;;26.66;39.12
72465;BME280;60471;52.150;4.508;2023-05-14T11:02:36;101628.56;;;27.48;37.66
72465;BME280;60471;52.150;4.508;2023-05-14T11:05:06;101620.44;;;28.47;34.97
72465;BME280;60471;52.150;4.508;2023-05-14T11:07:35;101612.81;;;29.14;33.31
72465;BME280;60471;52.150;4.508;2023-05-14T11:10:05;101621.06;;;29.91;32.73
72465;BME280;60471;52.150;4.508;2023-05-14T11:12:38;101610.38;;;29.27;33.96
72465;BME280;60471;52.150;4.508;2023-05-14T11:15:08;101608.97;;;29.70;32.70
72465;BME280;60471;52.150;4.508;2023-05-14T11:17:37;101606.75;;;31.46;30.25
72465;BME280;60471;52.150;4.508;2023-05-14T11:20:06;101612.50;;;31.72;29.43
72465;BME280;60471;52.150;4.508;2023-05-14T11:22:34;101611.66;;;30.62;30.80
72465;BME280;60471;52.150;4.508;2023-05-14T11:25:02;101606.53;;;30.59;30.16
72465;BME280;60471;52.150;4.508;2023-05-14T11:27:29;101600.31;;;30.73;31.40
72465;BME280;60471;52.150;4.508;2023-05-14T11:29:56;101599.47;;;30.35;31.05
72465;BME280;60471;52.150;4.508;2023-05-14T11:32:36;101594.66;;;29.99;32.97
72465;BME280;60471;52.150;4.508;2023-05-14T11:35:03;101597.59;;;30.73;30.96
72465;BME280;60471;52.150;4.508;2023-05-14T11:37:29;101585.94;;;30.79;30.99
72465;BME280;60471;52.150;4.508;2023-05-14T11:39:59;101582.94;;;30.74;31.47
72465;BME280;60471;52.150;4.508;2023-05-14T11:42:26;101587.63;;;30.80;31.18
72465;BME280;60471;52.150;4.508;2023-05-14T11:44:53;101584.69;;;30.67;30.98
72465;BME280;60471;52.150;4.508;2023-05-14T11:47:21;101577.56;;;30.96;30.48
72465;BME280;60471;52.150;4.508;2023-05-14T11:49:47;101578.91;;;30.47;31.79
72465;BME280;60471;52.150;4.508;2023-05-14T11:52:15;101576.31;;;30.54;30.91
72465;BME280;60471;52.150;4.508;2023-05-14T11:54:46;101571.00;;;30.00;32.25
72465;BME280;60471;52.150;4.508;2023-05-14T11:57:16;101572.50;;;29.57;33.48
72465;BME280;60471;52.150;4.508;2023-05-14T11:59:44;101566.28;;;29.71;32.70
72465;BME280;60471;52.150;4.508;2023-05-14T12:02:12;101573.50;;;29.64;33.22
72465;BME280;60471;52.150;4.508;2023-05-14T12:04:41;101581.56;;;30.55;32.15
72465;BME280;60471;52.150;4.508;2023-05-14T12:07:12;101582.81;;;31.27;29.69
72465;BME280;60471;52.150;4.508;2023-05-14T12:09:42;101573.22;;;30.72;30.80
72465;BME280;60471;52.150;4.508;2023-05-14T12:12:18;101573.06;;;30.21;30.91
72465;BME280;60471;52.150;4.508;2023-05-14T12:14:48;101566.53;;;29.84;31.63
72465;BME280;60471;52.150;4.508;2023-05-14T12:17:16;101574.81;;;29.91;30.93
72465;BME280;60471;52.150;4.508;2023-05-14T12:19:46;101564.28;;;29.34;32.48
72465;BME280;60471;52.150;4.508;2023-05-14T12:22:18;101565.22;;;28.63;33.35
72465;BME280;60471;52.150;4.508;2023-05-14T12:24:56;101567.81;;;28.32;34.85
72465;BME280;60471;52.150;4.508;2023-05-14T12:27:24;101567.97;;;27.89;34.53
72465;BME280;60471;52.150;4.508;2023-05-14T12:30:02;101556.47;;;29.00;33.59
72465;BME280;60471;52.150;4.508;2023-05-14T12:32:33;101559.56;;;29.59;32.78
72465;BME280;60471;52.150;4.508;2023-05-14T12:35:00;101561.25;;;30.06;30.81
72465;BME280;60471;52.150;4.508;2023-05-14T12:37:26;101550.44;;;30.73;29.41
72465;BME280;60471;52.150;4.508;2023-05-14T12:39:53;101564.19;;;30.42;31.29
72465;BME280;60471;52.150;4.508;2023-05-14T12:42:19;101560.63;;;31.00;29.52
72465;BME280;60471;52.150;4.508;2023-05-14T12:44:47;101551.66;;;30.18;30.33
72465;BME280;60471;52.150;4.508;2023-05-14T12:47:13;101555.59;;;29.69;30.62
72465;BME280;60471;52.150;4.508;2023-05-14T12:49:39;101551.41;;;29.59;31.32
72465;BME280;60471;52.150;4.508;2023-05-14T12:52:06;101555.41;;;29.40;32.19
72465;BME280;60471;52.150;4.508;2023-05-14T12:54:32;101545.22;;;28.55;32.77